sensor_id;sensor_type;location;lat;lon;timestamp;temperature;humidity
54126;DHT22;40360;52.992;6.796;2023-03-01T00:02:17;-0.90;99.90
54126;DHT22;40360;52.992;6.796;2023-03-01T00:04:43;-0.90;99.90
54126;DHT22;40360;52.992;6.796;2023-03-01T00:07:08;-0.90;99.90
54126;DHT22;40360;52.992;6.796;2023-03-01T00:09:36;-0.90;99.90
54126;DHT22;40360;52.992;6.796;2023-03-01T00:12:02;-0.90;99.90
54126;DHT22;40360;52.992;6.796;2023-03-01T00:14:28;-0.90;99.90
54126;DHT22;40360;52.992;6.796;2023-03-01T00:16:54;-0.90;99.90
54126;DHT22;40360;52.992;6.796;2023-03-01T00:19:20;-0.90;99.90
54126;DHT22;40360;52.992;6.796;2023-03-01T00:21:47;-1.00;99.90
54126;DHT22;40360;52.992;6.796;2023-03-01T00:24:13;-1.00;99.90
54126;DHT22;40360;52.992;6.796;2023-03-01T00:26:39;-1.10;99.90
54126;DHT22;40360;52.992;6.796;2023-03-01T00:29:04;-1.10;99.90
54126;DHT22;40360;52.992;6.796;2023-03-01T00:31:32;-1.10;99.90
54126;DHT22;40360;52.992;6.796;2023-03-01T00:34:03;-1.10;99.90
54126;DHT22;40360;52.992;6.796;2023-03-01T00:36:34;-1.20;99.90
54126;DHT22;40360;52.992;6.796;2023-03-01T00:39:00;-1.20;99.90
54126;DHT22;40360;52.992;6.796;2023-03-01T00:41:26;-1.20;99.90
54126;DHT22;40360;52.992;6.796;2023-03-01T00:43:52;-1.20;99.90
54126;DHT22;40360;52.992;6.796;2023-03-01T00:46:21;-1.20;99.90
54126;DHT22;40360;52.992;6.796;2023-03-01T00:48:48;-1.20;99.90
54126;DHT22;40360;52.992;6.796;2023-03-01T00:51:20;-1.20;99.90
54126;DHT22;40360;52.992;6.796;2023-03-01T00:53:47;-1.20;99.90
54126;DHT22;40360;52.992;6.796;2023-03-01T00:56:15;-1.10;99.90
54126;DHT22;40360;52.992;6.796;2023-03-01T00:58:41;-1.20;99.90
54126;DHT22;40360;52.992;6.796;2023-03-01T01:01:11;-1.20;99.90
54126;DHT22;40360;52.992;6.796;2023-03-01T01:04:00;-1.30;99.90
54126;DHT22;40360;52.992;6.796;2023-03-01T01:06:37;-1.30;99.90
54126;DHT22;40360;52.992;6.796;2023-03-01T01:09:05;-1.30;99.90
54126;DHT22;40360;52.992;6.796;2023-03-01T01:11:31;-1.40;99.90
54126;DHT22;40360;52.992;6.796;2023-03-01T01:13:57;-1.40;99.90
54126;DHT22;40360;52.992;6.796;2023-03-01T01:16:25;-1.40;99.90
54126;DHT22;40360;52.992;6.796;2023-03-01T01:18:51;-1.50;99.90
54126;DHT22;40360;52.992;6.796;2023-03-01T01:21:23;-1.50;99.90
54126;DHT22;40360;52.992;6.796;2023-03-01T01:23:49;-1.50;99.90
54126;DHT22;40360;52.992;6.796;2023-03-01T01:26:18;-1.60;99.90
54126;DHT22;40360;52.992;6.796;2023-03-01T01:28:44;-1.60;99.90
54126;DHT22;40360;52.992;6.796;2023-03-01T01:31:10;-1.60;99.90
54126;DHT22;40360;52.992;6.796;2023-03-01T01:33:36;-1.60;99.90
54126;DHT22;40360;52.992;6.796;2023-03-01T01:36:04;-1.70;99.90
54126;DHT22;40360;52.992;6.796;2023-03-01T01:38:29;-1.60;99.90
54126;DHT22;40360;52.992;6.796;2023-03-01T01:40:55;-1.60;99.90
54126;DHT22;40360;52.992;6.796;2023-03-01T01:45:49;-1.60;99.90
54126;DHT22;40360;52.992;6.796;2023-03-01T01:48:22;-1.50;99.90
54126;DHT22;40360;52.992;6.796;2023-03-01T01:50:57;-1.60;99.90
54126;DHT22;40360;52.992;6.796;2023-03-01T01:53:24;-1.60;99.90
54126;DHT22;40360;52.992;6.796;2023-03-01T01:55:57;-1.60;99.90
54126;DHT22;40360;52.992;6.796;2023-03-01T01:58:26;-1.60;99.90
54126;DHT22;40360;52.992;6.796;2023-03-01T02:00:53;-1.70;99.90
54126;DHT22;40360;52.992;6.796;2023-03-01T02:03:24;-1.70;99.90
54126;DHT22;40360;52.992;6.796;2023-03-01T02:05:58;-1.70;99.90
54126;DHT22;40360;52.992;6.796;2023-03-01T02:08:28;-1.70;99.90
54126;DHT22;40360;52.992;6.796;2023-03-01T02:10:56;-1.70;99.90
54126;DHT22;40360;52.992;6.796;2023-03-01T02:13:23;-1.70;99.90
54126;DHT22;40360;52.992;6.796;2023-03-01T02:15:48;-1.80;99.90
54126;DHT22;40360;52.992;6.796;2023-03-01T02:18:17;-1.80;99.90
54126;DHT22;40360;52.992;6.796;2023-03-01T02:20:58;-1.80;99.90
54126;DHT22;40360;52.992;6.796;2023-03-01T02:23:25;-1.80;99.90
54126;DHT22;40360;52.992;6.796;2023-03-01T02:26:08;-1.90;99.90
54126;DHT22;40360;52.992;6.796;2023-03-01T02:28:38;-1.90;99.90
54126;DHT22;40360;52.992;6.796;2023-03-01T02:31:07;-1.90;99.90
54126;DHT22;40360;52.992;6.796;2023-03-01T02:33:52;-1.90;99.90
54126;DHT22;40360;52.992;6.796;2023-03-01T02:36:24;-2.00;99.90
54126;DHT22;40360;52.992;6.796;2023-03-01T02:38:53;-2.00;99.90
54126;DHT22;40360;52.992;6.796;2023-03-01T02:41:21;-2.00;99.90
54126;DHT22;40360;52.992;6.796;2023-03-01T02:43:48;-2.00;99.90
54126;DHT22;40360;52.992;6.796;2023-03-01T02:46:17;-2.00;99.90
54126;DHT22;40360;52.992;6.796;2023-03-01T02:48:47;-2.00;99.90
54126;DHT22;40360;52.992;6.796;2023-03-01T02:51:31;-2.00;99.90
54126;DHT22;40360;52.992;6.796;2023-03-01T02:54:25;-1.90;99.90
54126;DHT22;40360;52.992;6.796;2023-03-01T02:56:53;-1.90;99.90
54126;DHT22;40360;52.992;6.796;2023-03-01T02:59:21;-2.00;99.90
54126;DHT22;40360;52.992;6.796;2023-03-01T03:01:48;-2.00;99.90
54126;DHT22;40360;52.992;6.796;2023-03-01T03:04:16;-2.00;99.90
54126;DHT22;40360;52.992;6.796;2023-03-01T03:06:47;-2.00;99.90
54126;DHT22;40360;52.992;6.796;2023-03-01T03:09:14;-2.00;99.90
54126;DHT22;40360;52.992;6.796;2023-03-01T03:11:40;-2.00;99.90
54126;DHT22;40360;52.992;6.796;2023-03-01T03:14:07;-2.00;99.90
54126;DHT22;40360;52.992;6.796;2023-03-01T03:16:43;-2.00;99.90
54126;DHT22;40360;52.992;6.796;2023-03-01T03:19:09;-2.00;99.90
54126;DHT22;40360;52.992;6.796;2023-03-01T03:21:35;-2.10;99.90
54126;DHT22;40360;52.992;6.796;2023-03-01T03:24:01;-2.10;99.90
54126;DHT22;40360;52.992;6.796;2023-03-01T03:26:27;-2.10;99.90
54126;DHT22;40360;52.992;6.796;2023-03-01T03:28:52;-2.10;99.90
54126;DHT22;40360;52.992;6.796;2023-03-01T03:31:19;-2.00;99.90
54126;DHT22;40360;52.992;6.796;2023-03-01T03:33:45;-2.20;99.90
54126;DHT22;40360;52.992;6.796;2023-03-01T03:36:16;-2.20;99.90
54126;DHT22;40360;52.992;6.796;2023-03-01T03:38:43;-2.20;99.90
54126;DHT22;40360;52.992;6.796;2023-03-01T03:41:09;-2.20;99.90
54126;DHT22;40360;52.992;6.796;2023-03-01T03:43:37;-2.20;99.90
54126;DHT22;40360;52.992;6.796;2023-03-01T03:46:04;-2.20;99.90
54126;DHT22;40360;52.992;6.796;2023-03-01T03:48:37;-2.30;99.90
54126;DHT22;40360;52.992;6.796;2023-03-01T03:51:03;-2.30;99.90
54126;DHT22;40360;52.992;6.796;2023-03-01T03:53:31;-2.40;99.90
54126;DHT22;40360;52.992;6.796;2023-03-01T03:55:58;-2.40;99.90
54126;DHT22;40360;52.992;6.796;2023-03-01T03:58:24;-2.40;99.90
54126;DHT22;40360;52.992;6.796;2023-03-01T04:00:54;-2.40;99.90
54126;DHT22;40360;52.992;6.796;2023-03-01T04:03:22;-2.40;99.90
54126;DHT22;40360;52.992;6.796;2023-03-01T04:05:50;-2.40;99.90
54126;DHT22;40360;52.992;6.796;2023-03-01T04:08:17;-2.40;99.90
54126;DHT22;40360;52.992;6.796;2023-03-01T04:10:46;-2.40;99.90
54126;DHT22;40360;52.992;6.796;2023-03-01T04:13:18;-2.40;99.90
54126;DHT22;40360;52.992;6.796;2023-03-01T04:15:45;-2.40;99.90
54126;DHT22;40360;52.992;6.796;2023-03-01T04:18:15;-2.40;99.90
54126;DHT22;40360;52.992;6.796;2023-03-01T04:20:42;-2.50;99.90
54126;DHT22;40360;52.992;6.796;2023-03-01T04:23:16;-2.50;99.90
54126;DHT22;40360;52.992;6.796;2023-03-01T04:28:15;-2.40;99.90
54126;DHT22;40360;52.992;6.796;2023-03-01T04:30:40;-2.40;99.90
54126;DHT22;40360;52.992;6.796;2023-03-01T04:33:08;-2.40;99.90
54126;DHT22;40360;52.992;6.796;2023-03-01T04:35:35;-2.40;99.90
54126;DHT22;40360;52.992;6.796;2023-03-01T04:38:01;-2.40;99.90
54126;DHT22;40360;52.992;6.796;2023-03-01T04:40:26;-2.40;99.90
54126;DHT22;40360;52.992;6.796;2023-03-01T04:42:57;-2.40;99.90
54126;DHT22;40360;52.992;6.796;2023-03-01T04:45:25;-2.40;99.90
54126;DHT22;40360;52.992;6.796;2023-03-01T04:47:51;-2.40;99.90
54126;DHT22;40360;52.992;6.796;2023-03-01T04:50:20;-2.50;99.90
54126;DHT22;40360;52.992;6.796;2023-03-01T04:52:47;-2.50;99.90
54126;DHT22;40360;52.992;6.796;2023-03-01T04:55:13;-2.50;99.90
54126;DHT22;40360;52.992;6.796;2023-03-01T04:57:39;-2.50;99.90
54126;DHT22;40360;52.992;6.796;2023-03-01T05:00:07;-2.50;99.90
54126;DHT22;40360;52.992;6.796;2023-03-01T05:02:47;-2.50;99.90
54126;DHT22;40360;52.992;6.796;2023-03-01T05:05:14;-2.50;99.90
54126;DHT22;40360;52.992;6.796;2023-03-01T05:07:40;-2.50;99.90
54126;DHT22;40360;52.992;6.796;2023-03-01T05:10:06;-2.50;99.90
54126;DHT22;40360;52.992;6.796;2023-03-01T05:12:32;-2.50;99.90
54126;DHT22;40360;52.992;6.796;2023-03-01T05:14:57;-2.50;99.90
54126;DHT22;40360;52.992;6.796;2023-03-01T05:17:23;-2.50;99.90
54126;DHT22;40360;52.992;6.796;2023-03-01T05:19:49;-2.50;99.90
54126;DHT22;40360;52.992;6.796;2023-03-01T05:22:15;-2.50;99.90
54126;DHT22;40360;52.992;6.796;2023-03-01T05:24:41;-2.60;99.90
54126;DHT22;40360;52.992;6.796;2023-03-01T05:27:07;-2.60;99.90
54126;DHT22;40360;52.992;6.796;2023-03-01T05:29:33;-2.60;99.90
54126;DHT22;40360;52.992;6.796;2023-03-01T05:32:01;-2.60;99.90
54126;DHT22;40360;52.992;6.796;2023-03-01T05:34:36;-2.60;99.90
54126;DHT22;40360;52.992;6.796;2023-03-01T05:37:02;-2.60;99.90
54126;DHT22;40360;52.992;6.796;2023-03-01T05:39:29;-2.60;99.90
54126;DHT22;40360;52.992;6.796;2023-03-01T05:41:56;-2.60;99.90
54126;DHT22;40360;52.992;6.796;2023-03-01T06:00:57;-2.60;99.90
54126;DHT22;40360;52.992;6.796;2023-03-01T06:03:23;-2.70;99.90
54126;DHT22;40360;52.992;6.796;2023-03-01T06:05:48;-2.70;99.90
54126;DHT22;40360;52.992;6.796;2023-03-01T06:08:14;-2.70;99.90
54126;DHT22;40360;52.992;6.796;2023-03-01T06:10:40;-2.60;99.90
54126;DHT22;40360;52.992;6.796;2023-03-01T06:13:06;-2.60;99.90
54126;DHT22;40360;52.992;6.796;2023-03-01T06:15:31;-2.60;99.90
54126;DHT22;40360;52.992;6.796;2023-03-01T06:17:57;-2.60;99.90
54126;DHT22;40360;52.992;6.796;2023-03-01T06:20:25;-2.60;99.90
54126;DHT22;40360;52.992;6.796;2023-03-01T06:22:51;-2.60;99.90
54126;DHT22;40360;52.992;6.796;2023-03-01T06:25:21;-2.60;99.90
54126;DHT22;40360;52.992;6.796;2023-03-01T06:27:47;-2.60;99.90
54126;DHT22;40360;52.992;6.796;2023-03-01T06:30:15;-2.50;99.90
54126;DHT22;40360;52.992;6.796;2023-03-01T06:32:42;-2.60;99.90
54126;DHT22;40360;52.992;6.796;2023-03-01T06:35:12;-2.60;99.90
54126;DHT22;40360;52.992;6.796;2023-03-01T06:37:39;-2.60;99.90
54126;DHT22;40360;52.992;6.796;2023-03-01T06:40:05;-2.60;99.90
54126;DHT22;40360;52.992;6.796;2023-03-01T06:42:38;-2.50;99.90
54126;DHT22;40360;52.992;6.796;2023-03-01T06:45:05;-2.50;99.90
54126;DHT22;40360;52.992;6.796;2023-03-01T06:47:31;-2.50;99.90
54126;DHT22;40360;52.992;6.796;2023-03-01T06:50:02;-2.40;99.90
54126;DHT22;40360;52.992;6.796;2023-03-01T06:52:28;-2.40;99.90
54126;DHT22;40360;52.992;6.796;2023-03-01T06:54:54;-2.40;99.90
54126;DHT22;40360;52.992;6.796;2023-03-01T06:57:20;-2.30;99.90
54126;DHT22;40360;52.992;6.796;2023-03-01T06:59:46;-2.30;99.90
54126;DHT22;40360;52.992;6.796;2023-03-01T07:02:13;-2.30;99.90
54126;DHT22;40360;52.992;6.796;2023-03-01T07:04:39;-2.20;99.90
54126;DHT22;40360;52.992;6.796;2023-03-01T07:07:05;-2.20;99.90
54126;DHT22;40360;52.992;6.796;2023-03-01T07:09:32;-2.20;99.90
54126;DHT22;40360;52.992;6.796;2023-03-01T07:11:58;-2.10;99.90
54126;DHT22;40360;52.992;6.796;2023-03-01T07:14:23;-2.00;99.90
54126;DHT22;40360;52.992;6.796;2023-03-01T07:16:53;-2.00;99.90
54126;DHT22;40360;52.992;6.796;2023-03-01T07:19:19;-1.90;99.90
54126;DHT22;40360;52.992;6.796;2023-03-01T07:21:45;-1.90;99.90
54126;DHT22;40360;52.992;6.796;2023-03-01T07:24:10;-1.80;99.90
54126;DHT22;40360;52.992;6.796;2023-03-01T07:26:36;-1.70;99.90
54126;DHT22;40360;52.992;6.796;2023-03-01T07:29:04;-1.70;99.90
54126;DHT22;40360;52.992;6.796;2023-03-01T07:31:31;-1.60;99.90
54126;DHT22;40360;52.992;6.796;2023-03-01T07:33:57;-1.50;99.90
54126;DHT22;40360;52.992;6.796;2023-03-01T07:36:23;-1.30;99.90
54126;DHT22;40360;52.992;6.796;2023-03-01T07:38:49;-1.40;99.90
54126;DHT22;40360;52.992;6.796;2023-03-01T07:41:15;-1.30;99.90
54126;DHT22;40360;52.992;6.796;2023-03-01T07:43:41;-1.30;99.90
54126;DHT22;40360;52.992;6.796;2023-03-01T07:46:06;-1.20;99.90
54126;DHT22;40360;52.992;6.796;2023-03-01T07:48:33;-1.10;99.90
54126;DHT22;40360;52.992;6.796;2023-03-01T07:51:00;-1.00;99.90
54126;DHT22;40360;52.992;6.796;2023-03-01T07:53:25;-0.90;99.90
54126;DHT22;40360;52.992;6.796;2023-03-01T07:56:03;-0.80;99.90
54126;DHT22;40360;52.992;6.796;2023-03-01T07:58:29;-0.70;99.90
54126;DHT22;40360;52.992;6.796;2023-03-01T08:00:55;-0.70;99.90
54126;DHT22;40360;52.992;6.796;2023-03-01T08:03:20;-0.60;99.90
54126;DHT22;40360;52.992;6.796;2023-03-01T08:05:46;-0.40;99.90
54126;DHT22;40360;52.992;6.796;2023-03-01T08:08:12;-0.30;99.90
54126;DHT22;40360;52.992;6.796;2023-03-01T08:10:37;-0.20;99.90
54126;DHT22;40360;52.992;6.796;2023-03-01T08:13:03;-0.10;99.90
54126;DHT22;40360;52.992;6.796;2023-03-01T08:15:28;0.00;99.90
54126;DHT22;40360;52.992;6.796;2023-03-01T08:17:54;0.00;99.90
54126;DHT22;40360;52.992;6.796;2023-03-01T08:20:20;0.10;99.90
54126;DHT22;40360;52.992;6.796;2023-03-01T08:22:46;0.20;99.90
54126;DHT22;40360;52.992;6.796;2023-03-01T08:25:11;0.30;99.90
54126;DHT22;40360;52.992;6.796;2023-03-01T08:27:37;0.40;99.90
54126;DHT22;40360;52.992;6.796;2023-03-01T08:30:03;0.50;99.90
54126;DHT22;40360;52.992;6.796;2023-03-01T08:32:29;0.60;99.90
54126;DHT22;40360;52.992;6.796;2023-03-01T08:34:54;0.70;99.90
54126;DHT22;40360;52.992;6.796;2023-03-01T08:37:20;0.70;99.90
54126;DHT22;40360;52.992;6.796;2023-03-01T08:39:46;0.80;99.90
54126;DHT22;40360;52.992;6.796;2023-03-01T08:42:12;0.90;99.90
54126;DHT22;40360;52.992;6.796;2023-03-01T08:44:37;1.00;99.90
54126;DHT22;40360;52.992;6.796;2023-03-01T08:47:03;1.00;99.90
54126;DHT22;40360;52.992;6.796;2023-03-01T08:49:30;1.10;99.90
54126;DHT22;40360;52.992;6.796;2023-03-01T08:51:57;1.10;99.90
54126;DHT22;40360;52.992;6.796;2023-03-01T08:54:23;1.10;99.90
54126;DHT22;40360;52.992;6.796;2023-03-01T08:56:49;1.20;99.90
54126;DHT22;40360;52.992;6.796;2023-03-01T08:59:16;1.20;99.90
54126;DHT22;40360;52.992;6.796;2023-03-01T09:01:42;1.20;99.90
54126;DHT22;40360;52.992;6.796;2023-03-01T09:04:15;1.10;99.90
54126;DHT22;40360;52.992;6.796;2023-03-01T09:06:41;1.20;99.90
54126;DHT22;40360;52.992;6.796;2023-03-01T09:09:15;1.10;99.90
54126;DHT22;40360;52.992;6.796;2023-03-01T09:11:42;1.20;99.90
54126;DHT22;40360;52.992;6.796;2023-03-01T09:14:08;1.20;99.90
54126;DHT22;40360;52.992;6.796;2023-03-01T09:16:34;1.30;99.90
54126;DHT22;40360;52.992;6.796;2023-03-01T09:19:02;1.40;99.90
54126;DHT22;40360;52.992;6.796;2023-03-01T09:21:28;1.40;99.90
54126;DHT22;40360;52.992;6.796;2023-03-01T09:23:56;1.50;99.90
54126;DHT22;40360;52.992;6.796;2023-03-01T09:26:23;1.50;99.90
54126;DHT22;40360;52.992;6.796;2023-03-01T09:28:50;1.40;99.90
54126;DHT22;40360;52.992;6.796;2023-03-01T09:31:17;1.40;99.90
54126;DHT22;40360;52.992;6.796;2023-03-01T09:33:46;1.40;99.90
54126;DHT22;40360;52.992;6.796;2023-03-01T09:36:16;1.40;99.90
54126;DHT22;40360;52.992;6.796;2023-03-01T09:38:42;1.50;99.90
54126;DHT22;40360;52.992;6.796;2023-03-01T09:43:57;1.60;99.90
54126;DHT22;40360;52.992;6.796;2023-03-01T09:46:26;1.70;99.90
54126;DHT22;40360;52.992;6.796;2023-03-01T09:49:01;1.80;99.90
54126;DHT22;40360;52.992;6.796;2023-03-01T09:51:32;1.90;99.90
54126;DHT22;40360;52.992;6.796;2023-03-01T09:53:58;2.00;99.90
54126;DHT22;40360;52.992;6.796;2023-03-01T09:56:41;2.10;99.90
54126;DHT22;40360;52.992;6.796;2023-03-01T10:01:47;2.00;99.90
54126;DHT22;40360;52.992;6.796;2023-03-01T10:04:32;2.00;99.90
54126;DHT22;40360;52.992;6.796;2023-03-01T10:09:37;2.00;99.90
54126;DHT22;40360;52.992;6.796;2023-03-01T10:12:08;2.00;99.90
54126;DHT22;40360;52.992;6.796;2023-03-01T10:14:36;2.10;99.90
54126;DHT22;40360;52.992;6.796;2023-03-01T10:17:10;2.10;99.90
54126;DHT22;40360;52.992;6.796;2023-03-01T10:19:47;2.20;99.90
54126;DHT22;40360;52.992;6.796;2023-03-01T10:22:29;2.30;99.90
54126;DHT22;40360;52.992;6.796;2023-03-01T10:24:59;2.50;99.90
54126;DHT22;40360;52.992;6.796;2023-03-01T10:27:46;2.60;99.90
54126;DHT22;40360;52.992;6.796;2023-03-01T10:30:29;2.70;99.90
54126;DHT22;40360;52.992;6.796;2023-03-01T10:32:58;2.80;99.90
54126;DHT22;40360;52.992;6.796;2023-03-01T10:35:27;3.00;99.90
54126;DHT22;40360;52.992;6.796;2023-03-01T10:38:09;3.10;99.90
54126;DHT22;40360;52.992;6.796;2023-03-01T10:40:36;3.30;99.90
54126;DHT22;40360;52.992;6.796;2023-03-01T10:43:14;3.40;99.90
54126;DHT22;40360;52.992;6.796;2023-03-01T10:45:40;3.60;99.90
54126;DHT22;40360;52.992;6.796;2023-03-01T10:48:26;3.60;99.90
54126;DHT22;40360;52.992;6.796;2023-03-01T10:53:27;3.90;99.90
54126;DHT22;40360;52.992;6.796;2023-03-01T10:56:11;4.00;99.90
54126;DHT22;40360;52.992;6.796;2023-03-01T10:58:40;4.10;99.90
54126;DHT22;40360;52.992;6.796;2023-03-01T11:03:41;4.30;99.90
54126;DHT22;40360;52.992;6.796;2023-03-01T11:08:43;4.50;99.90
54126;DHT22;40360;52.992;6.796;2023-03-01T11:13:57;4.70;99.90
54126;DHT22;40360;52.992;6.796;2023-03-01T11:16:32;4.70;99.90
54126;DHT22;40360;52.992;6.796;2023-03-01T11:19:20;4.80;99.90
54126;DHT22;40360;52.992;6.796;2023-03-01T11:21:55;4.90;99.90
54126;DHT22;40360;52.992;6.796;2023-03-01T11:24:31;5.00;99.90
54126;DHT22;40360;52.992;6.796;2023-03-01T11:27:02;5.10;99.90
54126;DHT22;40360;52.992;6.796;2023-03-01T11:29:44;5.20;99.90
54126;DHT22;40360;52.992;6.796;2023-03-01T11:32:13;5.30;99.90
54126;DHT22;40360;52.992;6.796;2023-03-01T11:34:51;5.30;99.90
54126;DHT22;40360;52.992;6.796;2023-03-01T11:40:40;5.50;99.90
54126;DHT22;40360;52.992;6.796;2023-03-01T11:49:32;5.70;99.90
54126;DHT22;40360;52.992;6.796;2023-03-01T12:17:34;6.30;99.90
54126;DHT22;40360;52.992;6.796;2023-03-01T12:20:21;6.40;99.90
54126;DHT22;40360;52.992;6.796;2023-03-01T12:28:51;6.60;99.90
54126;DHT22;40360;52.992;6.796;2023-03-01T12:31:41;6.60;99.90
54126;DHT22;40360;52.992;6.796;2023-03-01T12:43:04;6.90;99.90
54126;DHT22;40360;52.992;6.796;2023-03-01T12:45:48;6.90;99.90
54126;DHT22;40360;52.992;6.796;2023-03-01T12:51:02;7.10;99.90
54126;DHT22;40360;52.992;6.796;2023-03-01T12:53:32;7.10;99.90
54126;DHT22;40360;52.992;6.796;2023-03-01T12:56:07;7.30;99.90
54126;DHT22;40360;52.992;6.796;2023-03-01T12:58:42;7.30;99.90
54126;DHT22;40360;52.992;6.796;2023-03-01T13:01:35;7.40;99.90
54126;DHT22;40360;52.992;6.796;2023-03-01T13:10:11;7.50;99.90
54126;DHT22;40360;52.992;6.796;2023-03-01T13:17:53;7.60;99.90
54126;DHT22;40360;52.992;6.796;2023-03-01T13:20:21;7.70;99.90
54126;DHT22;40360;52.992;6.796;2023-03-01T13:22:48;7.70;99.90
54126;DHT22;40360;52.992;6.796;2023-03-01T13:25:24;7.70;99.90
54126;DHT22;40360;52.992;6.796;2023-03-01T13:27:50;7.70;99.90
54126;DHT22;40360;52.992;6.796;2023-03-01T13:35:57;7.60;99.90
54126;DHT22;40360;52.992;6.796;2023-03-01T13:38:46;7.60;99.90
54126;DHT22;40360;52.992;6.796;2023-03-01T13:41:27;7.60;99.90
54126;DHT22;40360;52.992;6.796;2023-03-01T13:46:47;7.70;99.90
54126;DHT22;40360;52.992;6.796;2023-03-01T13:49:16;7.70;99.90
54126;DHT22;40360;52.992;6.796;2023-03-01T13:51:47;7.70;99.90
54126;DHT22;40360;52.992;6.796;2023-03-01T13:54:16;7.80;99.90
54126;DHT22;40360;52.992;6.796;2023-03-01T13:56:43;7.80;99.90
54126;DHT22;40360;52.992;6.796;2023-03-01T13:59:17;7.90;99.90
54126;DHT22;40360;52.992;6.796;2023-03-01T14:01:43;7.90;99.90
54126;DHT22;40360;52.992;6.796;2023-03-01T14:04:25;8.10;99.90
54126;DHT22;40360;52.992;6.796;2023-03-01T14:06:52;8.40;99.90
54126;DHT22;40360;52.992;6.796;2023-03-01T14:09:34;8.80;99.90
54126;DHT22;40360;52.992;6.796;2023-03-01T14:15:15;9.50;99.90
54126;DHT22;40360;52.992;6.796;2023-03-01T14:17:50;9.40;99.90
54126;DHT22;40360;52.992;6.796;2023-03-01T14:20:27;9.20;99.90
54126;DHT22;40360;52.992;6.796;2023-03-01T14:22:55;9.10;99.90
54126;DHT22;40360;52.992;6.796;2023-03-01T14:25:27;9.20;99.90
54126;DHT22;40360;52.992;6.796;2023-03-01T14:28:14;9.30;99.90
54126;DHT22;40360;52.992;6.796;2023-03-01T14:30:46;9.50;99.90
54126;DHT22;40360;52.992;6.796;2023-03-01T14:33:33;9.00;99.90
54126;DHT22;40360;52.992;6.796;2023-03-01T14:36:06;8.80;99.90
54126;DHT22;40360;52.992;6.796;2023-03-01T14:38:33;8.80;99.90
54126;DHT22;40360;52.992;6.796;2023-03-01T14:41:06;9.10;99.90
54126;DHT22;40360;52.992;6.796;2023-03-01T14:43:33;9.60;99.90
54126;DHT22;40360;52.992;6.796;2023-03-01T14:45:59;10.20;99.90
54126;DHT22;40360;52.992;6.796;2023-03-01T14:48:26;10.60;99.90
54126;DHT22;40360;52.992;6.796;2023-03-01T14:50:52;10.90;99.90
54126;DHT22;40360;52.992;6.796;2023-03-01T14:53:29;11.00;99.90
54126;DHT22;40360;52.992;6.796;2023-03-01T14:55:59;10.90;99.90
54126;DHT22;40360;52.992;6.796;2023-03-01T14:58:27;10.60;99.90
54126;DHT22;40360;52.992;6.796;2023-03-01T15:00:59;10.30;99.90
54126;DHT22;40360;52.992;6.796;2023-03-01T15:03:33;10.10;99.90
54126;DHT22;40360;52.992;6.796;2023-03-01T15:06:03;9.80;99.90
54126;DHT22;40360;52.992;6.796;2023-03-01T15:08:31;9.70;99.90
54126;DHT22;40360;52.992;6.796;2023-03-01T15:13:30;9.40;99.90
54126;DHT22;40360;52.992;6.796;2023-03-01T15:16:11;9.30;99.90
54126;DHT22;40360;52.992;6.796;2023-03-01T15:18:43;9.20;99.90
54126;DHT22;40360;52.992;6.796;2023-03-01T15:21:20;9.10;99.90
54126;DHT22;40360;52.992;6.796;2023-03-01T15:23:54;9.10;99.90
54126;DHT22;40360;52.992;6.796;2023-03-01T15:26:35;9.50;99.90
54126;DHT22;40360;52.992;6.796;2023-03-01T15:29:03;9.70;99.90
54126;DHT22;40360;52.992;6.796;2023-03-01T15:31:35;9.60;99.90
54126;DHT22;40360;52.992;6.796;2023-03-01T15:34:32;9.40;99.90
54126;DHT22;40360;52.992;6.796;2023-03-01T15:36:59;9.30;99.90
54126;DHT22;40360;52.992;6.796;2023-03-01T15:39:41;9.20;99.90
54126;DHT22;40360;52.992;6.796;2023-03-01T15:45:26;9.60;99.90
54126;DHT22;40360;52.992;6.796;2023-03-01T15:48:04;9.60;99.90
54126;DHT22;40360;52.992;6.796;2023-03-01T15:50:33;9.60;99.90
54126;DHT22;40360;52.992;6.796;2023-03-01T15:53:00;9.60;99.90
54126;DHT22;40360;52.992;6.796;2023-03-01T15:55:31;9.60;99.90
54126;DHT22;40360;52.992;6.796;2023-03-01T15:58:19;9.60;99.90
54126;DHT22;40360;52.992;6.796;2023-03-01T16:00:47;9.90;99.90
54126;DHT22;40360;52.992;6.796;2023-03-01T16:03:14;10.20;99.90
54126;DHT22;40360;52.992;6.796;2023-03-01T16:05:47;10.50;99.90
54126;DHT22;40360;52.992;6.796;2023-03-01T16:08:13;10.60;99.90
54126;DHT22;40360;52.992;6.796;2023-03-01T16:10:41;10.30;99.90
54126;DHT22;40360;52.992;6.796;2023-03-01T16:13:09;10.00;99.90
54126;DHT22;40360;52.992;6.796;2023-03-01T16:15:35;9.60;99.90
54126;DHT22;40360;52.992;6.796;2023-03-01T16:18:01;9.30;99.90
54126;DHT22;40360;52.992;6.796;2023-03-01T16:20:28;9.10;99.90
54126;DHT22;40360;52.992;6.796;2023-03-01T16:22:55;9.20;99.90
54126;DHT22;40360;52.992;6.796;2023-03-01T16:25:23;9.10;99.90
54126;DHT22;40360;52.992;6.796;2023-03-01T16:27:50;9.00;99.90
54126;DHT22;40360;52.992;6.796;2023-03-01T16:30:18;8.70;99.90
54126;DHT22;40360;52.992;6.796;2023-03-01T16:32:46;8.50;99.90
54126;DHT22;40360;52.992;6.796;2023-03-01T16:35:14;8.40;99.90
54126;DHT22;40360;52.992;6.796;2023-03-01T16:37:40;8.20;99.90
54126;DHT22;40360;52.992;6.796;2023-03-01T16:42:50;8.10;99.90
54126;DHT22;40360;52.992;6.796;2023-03-01T16:45:16;8.10;99.90
54126;DHT22;40360;52.992;6.796;2023-03-01T16:47:42;8.10;99.90
54126;DHT22;40360;52.992;6.796;2023-03-01T16:50:08;8.20;99.90
54126;DHT22;40360;52.992;6.796;2023-03-01T16:52:34;8.10;99.90
54126;DHT22;40360;52.992;6.796;2023-03-01T16:55:00;7.90;99.90
54126;DHT22;40360;52.992;6.796;2023-03-01T16:57:27;7.60;99.90
54126;DHT22;40360;52.992;6.796;2023-03-01T16:59:52;7.40;99.90
54126;DHT22;40360;52.992;6.796;2023-03-01T17:02:19;7.20;99.90
54126;DHT22;40360;52.992;6.796;2023-03-01T17:04:45;7.00;99.90
54126;DHT22;40360;52.992;6.796;2023-03-01T17:07:11;6.80;99.90
54126;DHT22;40360;52.992;6.796;2023-03-01T17:09:37;6.60;99.90
54126;DHT22;40360;52.992;6.796;2023-03-01T17:12:06;6.50;99.90
54126;DHT22;40360;52.992;6.796;2023-03-01T17:14:31;6.30;99.90
54126;DHT22;40360;52.992;6.796;2023-03-01T17:16:57;6.20;99.90
54126;DHT22;40360;52.992;6.796;2023-03-01T17:19:23;6.10;99.90
54126;DHT22;40360;52.992;6.796;2023-03-01T17:21:48;5.90;99.90
54126;DHT22;40360;52.992;6.796;2023-03-01T17:24:14;6.10;99.90
54126;DHT22;40360;52.992;6.796;2023-03-01T17:26:40;5.70;99.90
54126;DHT22;40360;52.992;6.796;2023-03-01T17:29:06;5.60;99.90
54126;DHT22;40360;52.992;6.796;2023-03-01T17:31:33;5.50;99.90
54126;DHT22;40360;52.992;6.796;2023-03-01T17:33:59;5.40;99.90
54126;DHT22;40360;52.992;6.796;2023-03-01T17:36:24;5.30;99.90
54126;DHT22;40360;52.992;6.796;2023-03-01T17:38:50;5.20;99.90
54126;DHT22;40360;52.992;6.796;2023-03-01T17:41:17;5.00;99.90
54126;DHT22;40360;52.992;6.796;2023-03-01T17:43:44;4.80;99.90
54126;DHT22;40360;52.992;6.796;2023-03-01T17:46:10;4.70;99.90
54126;DHT22;40360;52.992;6.796;2023-03-01T17:48:36;4.50;99.90
54126;DHT22;40360;52.992;6.796;2023-03-01T17:51:07;4.50;99.90
54126;DHT22;40360;52.992;6.796;2023-03-01T17:53:34;4.30;99.90
54126;DHT22;40360;52.992;6.796;2023-03-01T17:56:02;4.20;99.90